aviador You're here:

PAWS Decoded Metar

WASILLA in AK, USA
Report Time2017-06-24 14:56:00
UTC Time2017-06-24 17:09:49
Flight Rules Old
WindCalm
Visibility9999 m
Phenomena:N/A
Clouds:Overcast 025 Hf
Ceiling2,500 ft
Temp09°C (ISA -5)
Dew Point09°C (100% RH)
AAT8.8°C
QNH1022 hPa
Density Alt-433 ft
Elevation351 ft
Report Wrong Elevation
Raw Report
PAWS 241456Z AUTO 00000KT 10SM OVC025 09/09 A3019 RMK AO2 SLP239
T00890089 58008=

Extra information for PAWS:More info

Metar Taf Metar & Taf Last 4 Metars F.Rules Stats Wind Profile Meteogram Temp Stats Airport Information Weather charts Add Link Nearby VenuesMetar ALERT Operation Metar Decoded Social comments

AIRNAV info for PAWS